createdAt,value
2022-12-08T00:03:31.011Z,95280.69
2022-12-08T00:08:55.085Z,95279.56
2022-12-08T00:13:56.711Z,95269.88
2022-12-08T00:19:02.680Z,95269.53
2022-12-08T00:24:08.013Z,95269.53
2022-12-08T00:29:17.192Z,95271.47
2022-12-08T00:34:21.974Z,95272.59
2022-12-08T00:39:28.756Z,95271.81
2022-12-08T00:44:36.276Z,95263.69
2022-12-08T00:49:37.835Z,95266.44
2022-12-08T00:54:41.366Z,95268.03
2022-12-08T00:59:47.116Z,95270.34
2022-12-08T01:04:50.995Z,95259.16
2022-12-08T01:09:55.033Z,95266.09
2022-12-08T01:15:03.163Z,95264.97
2022-12-08T01:20:05.270Z,95268.38
2022-12-08T01:25:15.608Z,95255.25
2022-12-08T01:30:17.329Z,95262.19
2022-12-08T01:35:21.276Z,95264.19
2022-12-08T01:40:31.439Z,95257.66
2022-12-08T01:45:32.956Z,95253.03
2022-12-08T01:50:36.647Z,95247.25
2022-12-08T01:56:06.285Z,95247.66
2022-12-08T02:01:16.448Z,95246.91
2022-12-08T02:06:21.158Z,95241.16
2022-12-08T02:11:35.025Z,95241.91
2022-12-08T02:16:55.081Z,95234.94
2022-12-08T02:22:06.893Z,95230.34
2022-12-08T02:27:32.892Z,95224.19
2022-12-08T02:32:46.464Z,95221.13
2022-12-08T02:38:16.709Z,95215.31
2022-12-08T02:43:41.249Z,95208.75
2022-12-08T02:48:50.006Z,95206.84
2022-12-08T02:53:53.456Z,95206.41
2022-12-08T02:59:21.534Z,95197.97
2022-12-08T03:04:26.538Z,95184.41
2022-12-08T03:09:40.243Z,95177.00
2022-12-08T03:14:49.502Z,95180.50
2022-12-08T03:20:01.944Z,95172.38
2022-12-08T03:25:14.070Z,95167.75
2022-12-08T03:30:15.616Z,95167.34
2022-12-08T03:35:44.386Z,95160.75
2022-12-08T03:41:21.782Z,95164.94
2022-12-08T03:51:30.738Z,95158.69
2022-12-08T03:56:41.873Z,95164.16
2022-12-08T04:01:46.032Z,95159.50
2022-12-08T04:06:47.632Z,95155.94
2022-12-08T04:11:53.970Z,95146.63
2022-12-08T04:17:00.344Z,95146.97
2022-12-08T04:22:10.510Z,95143.88
2022-12-08T04:27:13.116Z,95140.38
2022-12-08T04:32:21.929Z,95147.78
2022-12-08T04:37:32.871Z,95146.28
2022-12-08T04:42:39.611Z,95138.19
2022-12-08T04:47:43.481Z,95146.63
2022-12-08T04:52:47.335Z,95150.84
2022-12-08T04:57:49.076Z,95144.66
2022-12-08T05:02:52.980Z,95142.69
2022-12-08T05:08:05.545Z,95137.94
2022-12-08T05:13:11.868Z,95133.59
2022-12-08T05:18:17.925Z,95142.06
2022-12-08T05:23:23.713Z,95132.34
2022-12-08T05:28:41.836Z,95126.09
2022-12-08T05:33:51.508Z,95125.69
2022-12-08T05:39:03.735Z,95125.69
2022-12-08T05:44:05.321Z,95127.94
2022-12-08T05:49:13.765Z,95123.66
2022-12-08T05:54:15.262Z,95128.19
2022-12-08T05:59:30.924Z,95125.44
2022-12-08T06:04:38.017Z,95125.38
2022-12-08T06:09:45.533Z,95126.53
2022-12-08T06:14:52.302Z,95125.31
2022-12-08T06:19:58.680Z,95124.53
2022-12-08T06:25:00.248Z,95120.63
2022-12-08T06:30:13.621Z,95121.00
2022-12-08T06:35:17.450Z,95125.53
2022-12-08T06:40:19.944Z,95125.47
2022-12-08T06:45:25.109Z,95122.34
2022-12-08T06:50:33.111Z,95120.72
2022-12-08T07:01:10.838Z,95130.25
2022-12-08T07:06:25.101Z,95128.19
2022-12-08T07:11:49.106Z,95135.44
2022-12-08T07:17:02.848Z,95135.78
2022-12-08T07:22:11.688Z,95131.09
2022-12-08T07:27:17.380Z,95140.31
2022-12-08T07:32:19.670Z,95133.03
2022-12-08T07:37:27.512Z,95129.19
2022-12-08T07:42:36.596Z,95123.06
2022-12-08T07:47:42.651Z,95133.94
2022-12-08T07:52:47.447Z,95130.53
2022-12-08T07:57:58.797Z,95128.25
2022-12-08T08:03:12.086Z,95140.66
2022-12-08T08:08:17.266Z,95137.69
2022-12-08T08:13:21.279Z,95148.97
2022-12-08T08:18:25.273Z,95134.06
2022-12-08T08:23:32.316Z,95127.25
2022-12-08T08:28:34.189Z,95126.56
2022-12-08T08:33:42.517Z,95128.25
2022-12-08T08:38:48.358Z,95132.28
2022-12-08T08:43:54.895Z,95133.97
2022-12-08T08:48:58.546Z,95132.19
2022-12-08T08:54:02.444Z,95138.47
2022-12-08T08:59:06.741Z,95128.97
2022-12-08T09:04:25.660Z,95131.00
2022-12-08T09:09:30.861Z,95139.16
2022-12-08T09:14:35.130Z,95139.69
2022-12-08T09:19:39.275Z,95133.25
2022-12-08T09:24:45.985Z,95136.84
2022-12-08T09:29:47.573Z,95130.78
2022-12-08T09:35:00.540Z,95118.09
2022-12-08T09:40:02.514Z,95112.69
2022-12-08T09:45:15.522Z,95110.38
2022-12-08T09:50:37.624Z,95108.84
2022-12-08T09:55:45.927Z,95104.63
2022-12-08T10:00:50.170Z,95107.00
2022-12-08T10:06:19.019Z,95096.59
2022-12-08T10:11:31.635Z,95083.88
2022-12-08T10:16:50.347Z,95079.22
2022-12-08T10:21:59.771Z,95075.06
2022-12-08T10:27:06.125Z,95073.28
2022-12-08T10:32:35.771Z,95071.88
2022-12-08T10:37:38.317Z,95066.88
2022-12-08T10:42:50.729Z,95061.22
2022-12-08T10:48:11.840Z,95053.16
2022-12-08T10:53:20.178Z,95044.31
2022-12-08T10:58:27.977Z,95051.69
2022-12-08T11:03:34.491Z,95034.72
2022-12-08T11:08:54.151Z,95031.66
2022-12-08T11:13:57.794Z,95024.31
2022-12-08T11:19:06.675Z,95022.09
2022-12-08T11:24:15.456Z,95015.94
2022-12-08T11:29:22.283Z,95003.25
2022-12-08T11:34:36.714Z,95004.06
2022-12-08T11:39:54.990Z,94993.25
2022-12-08T11:45:17.853Z,94989.06
2022-12-08T11:51:20.717Z,94983.31
2022-12-08T11:56:34.357Z,94982.91
2022-12-08T12:01:42.247Z,94978.25
2022-12-08T12:06:55.100Z,94973.16
2022-12-08T12:12:15.755Z,94974.69
2022-12-08T12:17:40.564Z,94975.75
2022-12-08T12:22:47.460Z,94962.22
2022-12-08T12:28:04.439Z,94961.13
2022-12-08T12:33:13.039Z,94965.38
2022-12-08T12:39:03.243Z,94955.75
2022-12-08T12:44:22.699Z,94957.31
2022-12-08T12:49:43.615Z,94947.66
2022-12-08T12:54:50.775Z,94952.31
2022-12-08T12:59:56.230Z,94947.69
2022-12-08T13:05:29.125Z,94951.97
2022-12-08T13:10:37.152Z,94951.16
2022-12-08T13:15:41.200Z,94950.44
2022-12-08T13:20:53.161Z,94945.84
2022-12-08T13:26:12.352Z,94936.56
2022-12-08T13:31:50.188Z,94934.25
2022-12-08T13:36:58.522Z,94938.88
2022-12-08T13:42:15.038Z,94932.31
2022-12-08T13:47:33.759Z,94934.66
2022-12-08T13:58:40.011Z,94938.97
2022-12-08T14:04:22.155Z,94939.78
2022-12-08T14:09:21.106Z,94934.81
2022-12-08T14:20:15.992Z,94912.41
2022-12-08T14:25:24.169Z,94907.81
2022-12-08T14:30:37.925Z,94910.91
2022-12-08T14:35:39.927Z,94911.31
2022-12-08T14:40:48.863Z,94904.75
2022-12-08T14:45:56.163Z,94906.28
2022-12-08T14:51:18.823Z,94903.56
2022-12-08T14:56:41.089Z,94898.94
2022-12-08T15:01:46.271Z,94903.56
2022-12-08T15:07:19.238Z,94903.13
2022-12-08T15:12:35.198Z,94903.81
2022-12-08T15:17:48.501Z,94896.41
2022-12-08T15:22:57.794Z,94900.63
2022-12-08T15:28:04.288Z,94912.16
2022-12-08T15:33:14.222Z,94910.53
2022-12-08T15:38:33.163Z,94903.88
2022-12-08T15:43:35.665Z,94915.00
2022-12-08T15:48:40.997Z,94906.03
2022-12-08T15:53:44.849Z,94911.38
2022-12-08T15:58:54.803Z,94916.69
2022-12-08T16:09:44.117Z,94904.16
2022-12-08T16:20:24.288Z,94917.91
2022-12-08T16:25:52.739Z,94924.75
2022-12-08T16:31:02.090Z,94920.41
2022-12-08T16:36:10.147Z,94923.44
2022-12-08T16:41:43.933Z,94916.81
2022-12-08T16:46:51.128Z,94922.94
2022-12-08T16:51:55.663Z,94918.97
2022-12-08T16:57:02.614Z,94920.84
2022-12-08T17:02:16.296Z,94923.09
2022-12-08T17:07:25.165Z,94918.81
2022-12-08T17:12:35.757Z,94911.09
2022-12-08T17:17:40.058Z,94909.88
2022-12-08T17:22:43.937Z,94906.78
2022-12-08T17:27:53.855Z,94903.66
2022-12-08T17:33:08.206Z,94905.94
2022-12-08T17:38:18.060Z,94905.94
2022-12-08T17:43:28.189Z,94914.03
2022-12-08T17:48:37.205Z,94920.59
2022-12-08T17:53:53.537Z,94916.34
2022-12-08T17:58:58.873Z,94922.47
2022-12-08T18:04:05.489Z,94920.56
2022-12-08T18:09:09.190Z,94914.75
2022-12-08T18:14:14.322Z,94914.69
2022-12-08T18:19:21.990Z,94908.09
2022-12-08T18:24:25.964Z,94900.38
2022-12-08T18:29:29.101Z,94896.53
2022-12-08T18:34:39.093Z,94897.59
2022-12-08T18:39:43.808Z,94902.22
2022-12-08T18:44:48.982Z,94898.34
2022-12-08T18:49:54.768Z,94888.72
2022-12-08T18:55:07.037Z,94873.63
2022-12-08T19:00:17.193Z,94884.81
2022-12-08T19:05:19.077Z,94900.22
2022-12-08T19:10:24.626Z,94890.56
2022-12-08T19:15:34.426Z,94904.44
2022-12-08T19:20:37.362Z,94900.97
2022-12-08T19:25:45.359Z,94895.13
2022-12-08T19:30:49.844Z,94905.16
2022-12-08T19:35:52.886Z,94903.63
2022-12-08T19:41:14.296Z,94892.81
2022-12-08T19:46:21.286Z,94900.91
2022-12-08T19:51:30.360Z,94897.84
2022-12-08T19:56:32.603Z,94901.69
2022-12-08T20:01:40.306Z,94887.41
2022-12-08T20:06:45.660Z,94879.31
2022-12-08T20:11:47.298Z,94880.09
2022-12-08T20:16:57.299Z,94883.97
2022-12-08T20:22:03.667Z,94882.06
2022-12-08T20:27:17.796Z,94874.72
2022-12-08T20:32:19.357Z,94883.63
2022-12-08T20:37:23.259Z,94888.22
2022-12-08T20:42:24.886Z,94887.03
2022-12-08T20:47:29.162Z,94889.38
2022-12-08T20:52:34.245Z,94891.72
2022-12-08T20:57:38.271Z,94884.41
2022-12-08T21:02:48.606Z,94888.22
2022-12-08T21:08:02.725Z,94887.84
2022-12-08T21:13:08.407Z,94884.72
2022-12-08T21:18:23.906Z,94885.50
2022-12-08T21:23:31.696Z,94890.84
2022-12-08T21:28:35.846Z,94893.50
2022-12-08T21:33:41.220Z,94891.22
2022-12-08T21:38:47.984Z,94888.50
2022-12-08T21:43:54.776Z,94875.44
2022-12-08T21:48:57.915Z,94878.91
2022-12-08T21:54:06.422Z,94880.44
2022-12-08T21:59:20.839Z,94883.56
2022-12-08T22:04:26.747Z,94876.63
2022-12-08T22:09:31.444Z,94872.00
2022-12-08T22:14:40.586Z,94875.03
2022-12-08T22:19:46.766Z,94870.81
2022-12-08T22:24:53.899Z,94860.75
2022-12-08T22:30:00.243Z,94870.34
2022-12-08T22:35:06.703Z,94870.28
2022-12-08T22:40:11.969Z,94864.88
2022-12-08T22:45:13.855Z,94852.53
2022-12-08T22:50:29.275Z,94852.97
2022-12-08T22:55:44.779Z,94863.00
2022-12-08T23:00:48.747Z,94857.59
2022-12-08T23:05:50.546Z,94862.59
2022-12-08T23:11:03.774Z,94855.66
2022-12-08T23:16:13.379Z,94854.09
2022-12-08T23:21:22.613Z,94854.50
2022-12-08T23:26:28.880Z,94840.66
2022-12-08T23:31:35.644Z,94836.78
2022-12-08T23:36:50.877Z,94833.75
2022-12-08T23:41:52.754Z,94829.13
2022-12-08T23:46:54.766Z,94819.47
2022-12-08T23:51:59.377Z,94801.69
2022-12-08T23:57:01.044Z,94790.13
